PWSweather.com
Personal Weather Stations
Station Observations
HVALPSUND
Hvalpsund, FarsoeDK 9640

HvalpsundFarsoeDK 9640

Lat: 56.705311, Lon: 9.203638

Elevation: 5

Station Type: Vantage Pro2

http://hvalpsundvejr.dk

Latest ConditionsUpdated 4:27:00 AM GMT+01:01 Friday, Apr 19, 2019
Currently Today's Max Today's Min Today's Average
Temperature 40.1°F4.5°C 45.9°F7.7°C 40.1°F4.5°C 43.5°F6.4°C
Dew Point 33.5°F0.8°C 35.6°F2.0°C 33.3°F0.7°C 34.7°F1.5°C
Winds 3.0 mph SE4.8 kmh SE 8.0 mph -12.9 kmh - - 4.0 mph 6.4 kmh
Wind Gusts 3.0 mph4.8 kmh 9.0 mph14.5 kmh - -
Humidity 77% 77% 66% 71%
Pressure 30.59 in1035.9 mb 30.59 in1035.9 mb 30.58 in1035.6 mb -
Hour Temp Dew Point Humidity Winds Wind Gusts Pressure Precip Precip Rate Daily Precip Total
04:27 AM 40.1°F4.5°C 33.5°F0.8°C 77% 3.0 mph SE4.8 kmh SE 3.0 mph4.8 kmh 30.59 in1035.9 mb 0.00 in0.0 mm 0.00 in0.0 mm 0.00 in0.0 mm
04:26 AM 40.2°F4.6°C 33.6°F0.9°C 77% 3.0 mph SE4.8 kmh SE 3.0 mph4.8 kmh 30.59 in1035.9 mb 0.00 in0.0 mm 0.00 in0.0 mm 0.00 in0.0 mm
04:25 AM 40.2°F4.6°C 33.3°F0.7°C 76% 2.0 mph SE3.2 kmh SE 3.0 mph4.8 kmh 30.59 in1035.9 mb 0.00 in0.0 mm 0.00 in0.0 mm 0.00 in0.0 mm
04:24 AM 40.3°F4.6°C 33.3°F0.7°C 76% 1.0 mph SE1.6 kmh SE 2.0 mph3.2 kmh 30.59 in1035.9 mb 0.00 in0.0 mm 0.00 in0.0 mm 0.00 in0.0 mm
04:23 AM 40.3°F4.6°C 33.3°F0.7°C 76% 2.0 mph SE3.2 kmh SE 2.0 mph3.2 kmh 30.59 in1035.9 mb 0.00 in0.0 mm 0.00 in0.0 mm 0.00 in0.0 mm
04:22 AM 40.4°F4.7°C 33.4°F0.8°C 76% 1.0 mph SE1.6 kmh SE 1.0 mph1.6 kmh 30.59 in1035.9 mb 0.00 in0.0 mm 0.00 in0.0 mm 0.00 in0.0 mm
04:21 AM 40.5°F4.7°C 33.5°F0.8°C 76% 1.0 mph SE1.6 kmh SE 2.0 mph3.2 kmh 30.59 in1035.9 mb 0.00 in0.0 mm 0.00 in0.0 mm 0.00 in0.0 mm
04:20 AM 40.6°F4.8°C 33.6°F0.9°C 76% 1.0 mph SE1.6 kmh SE 2.0 mph3.2 kmh 30.59 in1035.9 mb 0.00 in0.0 mm 0.00 in0.0 mm 0.00 in0.0 mm
04:19 AM 40.7°F4.8°C 33.7°F0.9°C 76% 1.0 mph SE1.6 kmh SE 2.0 mph3.2 kmh 30.59 in1035.9 mb 0.00 in0.0 mm 0.00 in0.0 mm 0.00 in0.0 mm
04:18 AM 40.8°F4.9°C 34.2°F1.2°C 77% Calm Calm -- 30.59 in1035.9 mb 0.00 in0.0 mm 0.00 in0.0 mm 0.00 in0.0 mm
04:17 AM 40.8°F4.9°C 33.8°F1.0°C 76% Calm Calm -- 30.59 in1035.9 mb 0.00 in0.0 mm 0.00 in0.0 mm 0.00 in0.0 mm
04:16 AM 40.7°F4.8°C 33.7°F0.9°C 76% Calm Calm -- 30.59 in1035.9 mb 0.00 in0.0 mm 0.00 in0.0 mm 0.00 in0.0 mm
04:15 AM 40.7°F4.8°C 33.7°F0.9°C 76% Calm Calm -- 30.59 in1035.9 mb 0.00 in0.0 mm 0.00 in0.0 mm 0.00 in0.0 mm
04:14 AM 40.8°F4.9°C 33.8°F1.0°C 76% Calm Calm -- 30.59 in1035.9 mb 0.00 in0.0 mm 0.00 in0.0 mm 0.00 in0.0 mm
04:13 AM 40.8°F4.9°C 33.8°F1.0°C 76% Calm Calm -- 30.59 in1035.9 mb 0.00 in0.0 mm 0.00 in0.0 mm 0.00 in0.0 mm
04:12 AM 40.9°F4.9°C 33.9°F1.1°C 76% Calm Calm -- 30.59 in1035.9 mb 0.00 in0.0 mm 0.00 in0.0 mm 0.00 in0.0 mm
04:11 AM 40.9°F4.9°C 33.9°F1.1°C 76% Calm Calm -- 30.59 in1035.9 mb 0.00 in0.0 mm 0.00 in0.0 mm 0.00 in0.0 mm
04:10 AM 40.9°F4.9°C 33.9°F1.1°C 76% Calm Calm -- 30.59 in1035.9 mb 0.00 in0.0 mm 0.00 in0.0 mm 0.00 in0.0 mm
04:09 AM 40.9°F4.9°C 33.9°F1.1°C 76% Calm Calm -- 30.59 in1035.9 mb 0.00 in0.0 mm 0.00 in0.0 mm 0.00 in0.0 mm
04:08 AM 40.9°F4.9°C 33.6°F0.9°C 75% Calm Calm -- 30.59 in1035.9 mb 0.00 in0.0 mm 0.00 in0.0 mm 0.00 in0.0 mm
04:07 AM 41.0°F5.0°C 33.7°F0.9°C 75% Calm Calm 1.0 mph1.6 kmh 30.59 in1035.9 mb 0.00 in0.0 mm 0.00 in0.0 mm 0.00 in0.0 mm
04:06 AM 41.1°F5.1°C 34.1°F1.2°C 76% Calm Calm 1.0 mph1.6 kmh 30.59 in1035.9 mb 0.00 in0.0 mm 0.00 in0.0 mm 0.00 in0.0 mm
04:05 AM 41.1°F5.1°C 34.1°F1.2°C 76% 1.0 mph SE1.6 kmh SE 1.0 mph1.6 kmh 30.59 in1035.9 mb 0.00 in0.0 mm 0.00 in0.0 mm 0.00 in0.0 mm
04:04 AM 41.2°F5.1°C 34.2°F1.2°C 76% 1.0 mph SE1.6 kmh SE 1.0 mph1.6 kmh 30.59 in1035.9 mb 0.00 in0.0 mm 0.00 in0.0 mm 0.00 in0.0 mm
04:03 AM 41.2°F5.1°C 34.2°F1.2°C 76% 1.0 mph SE1.6 kmh SE 1.0 mph1.6 kmh 30.59 in1035.9 mb 0.00 in0.0 mm 0.00 in0.0 mm 0.00 in0.0 mm
04:02 AM 41.2°F5.1°C 34.2°F1.2°C 76% Calm Calm 1.0 mph1.6 kmh 30.59 in1035.9 mb 0.00 in0.0 mm 0.00 in0.0 mm 0.00 in0.0 mm
04:01 AM 41.2°F5.1°C 33.9°F1.1°C 75% Calm Calm 1.0 mph1.6 kmh 30.59 in1035.9 mb 0.00 in0.0 mm 0.00 in0.0 mm 0.00 in0.0 mm
04:00 AM 41.2°F5.1°C 33.9°F1.1°C 75% Calm Calm 1.0 mph1.6 kmh 30.59 in1035.9 mb 0.00 in0.0 mm 0.00 in0.0 mm 0.00 in0.0 mm
03:59 AM 41.2°F5.1°C 33.9°F1.1°C 75% Calm Calm 1.0 mph1.6 kmh 30.59 in1035.9 mb 0.00 in0.0 mm 0.00 in0.0 mm 0.00 in0.0 mm
03:58 AM 41.3°F5.2°C 34.0°F1.1°C 75% Calm Calm 1.0 mph1.6 kmh 30.59 in1035.9 mb 0.00 in0.0 mm 0.00 in0.0 mm 0.00 in0.0 mm
03:57 AM 41.4°F5.2°C 34.1°F1.2°C 75% 1.0 mph SE1.6 kmh SE 2.0 mph3.2 kmh 30.59 in1035.9 mb 0.00 in0.0 mm 0.00 in0.0 mm 0.00 in0.0 mm
03:56 AM 41.5°F5.3°C 34.2°F1.2°C 75% 1.0 mph SE1.6 kmh SE 2.0 mph3.2 kmh 30.59 in1035.9 mb 0.00 in0.0 mm 0.00 in0.0 mm 0.00 in0.0 mm
03:55 AM 41.5°F5.3°C 34.2°F1.2°C 75% 1.0 mph SE1.6 kmh SE 2.0 mph3.2 kmh 30.59 in1035.9 mb 0.00 in0.0 mm 0.00 in0.0 mm 0.00 in0.0 mm
03:54 AM 41.5°F5.3°C 34.2°F1.2°C 75% 2.0 mph SE3.2 kmh SE 3.0 mph4.8 kmh 30.59 in1035.9 mb 0.00 in0.0 mm 0.00 in0.0 mm 0.00 in0.0 mm
03:53 AM 41.6°F5.3°C 34.3°F1.3°C 75% 2.0 mph SE3.2 kmh SE 3.0 mph4.8 kmh 30.59 in1035.9 mb 0.00 in0.0 mm 0.00 in0.0 mm 0.00 in0.0 mm
03:52 AM 41.5°F5.3°C 34.2°F1.2°C 75% 3.0 mph SE4.8 kmh SE 3.0 mph4.8 kmh 30.59 in1035.9 mb 0.00 in0.0 mm 0.00 in0.0 mm 0.00 in0.0 mm
03:51 AM 41.5°F5.3°C 34.2°F1.2°C 75% 3.0 mph SE4.8 kmh SE 4.0 mph6.4 kmh 30.59 in1035.9 mb 0.00 in0.0 mm 0.00 in0.0 mm 0.00 in0.0 mm
03:50 AM 41.6°F5.3°C 34.3°F1.3°C 75% 3.0 mph SE4.8 kmh SE 4.0 mph6.4 kmh 30.59 in1035.9 mb 0.00 in0.0 mm 0.00 in0.0 mm 0.00 in0.0 mm
03:49 AM 41.6°F5.3°C 34.3°F1.3°C 75% 3.0 mph SE4.8 kmh SE 4.0 mph6.4 kmh 30.59 in1035.9 mb 0.00 in0.0 mm 0.00 in0.0 mm 0.00 in0.0 mm
03:48 AM 41.6°F5.3°C 34.3°F1.3°C 75% 3.0 mph SE4.8 kmh SE 4.0 mph6.4 kmh 30.59 in1035.9 mb 0.00 in0.0 mm 0.00 in0.0 mm 0.00 in0.0 mm
03:47 AM 41.7°F5.4°C 34.4°F1.3°C 75% 3.0 mph SE4.8 kmh SE 4.0 mph6.4 kmh 30.59 in1035.9 mb 0.00 in0.0 mm 0.00 in0.0 mm 0.00 in0.0 mm
03:46 AM 41.7°F5.4°C 34.4°F1.3°C 75% 3.0 mph SE4.8 kmh SE 4.0 mph6.4 kmh 30.59 in1035.9 mb 0.00 in0.0 mm 0.00 in0.0 mm 0.00 in0.0 mm
03:45 AM 41.8°F5.4°C 34.5°F1.4°C 75% 3.0 mph SE4.8 kmh SE 4.0 mph6.4 kmh 30.59 in1035.9 mb 0.00 in0.0 mm 0.00 in0.0 mm 0.00 in0.0 mm
03:44 AM 41.8°F5.4°C 34.5°F1.4°C 75% 4.0 mph SE6.4 kmh SE 4.0 mph6.4 kmh 30.59 in1035.9 mb 0.00 in0.0 mm 0.00 in0.0 mm 0.00 in0.0 mm
03:43 AM 41.8°F5.4°C 34.5°F1.4°C 75% 3.0 mph SE4.8 kmh SE 4.0 mph6.4 kmh 30.59 in1035.9 mb 0.00 in0.0 mm 0.00 in0.0 mm 0.00 in0.0 mm
03:42 AM 41.8°F5.4°C 34.5°F1.4°C 75% 3.0 mph SE4.8 kmh SE 4.0 mph6.4 kmh 30.59 in1035.9 mb 0.00 in0.0 mm 0.00 in0.0 mm 0.00 in0.0 mm
03:41 AM 41.8°F5.4°C 34.5°F1.4°C 75% 3.0 mph SE4.8 kmh SE 4.0 mph6.4 kmh 30.59 in1035.9 mb 0.00 in0.0 mm 0.00 in0.0 mm 0.00 in0.0 mm
03:40 AM 41.8°F5.4°C 34.5°F1.4°C 75% 4.0 mph SE6.4 kmh SE 4.0 mph6.4 kmh 30.59 in1035.9 mb 0.00 in0.0 mm 0.00 in0.0 mm 0.00 in0.0 mm
03:39 AM 41.8°F5.4°C 34.1°F1.2°C 74% 4.0 mph SE6.4 kmh SE 4.0 mph6.4 kmh 30.59 in1035.9 mb 0.00 in0.0 mm 0.00 in0.0 mm 0.00 in0.0 mm
03:38 AM 41.8°F5.4°C 34.1°F1.2°C 74% 4.0 mph SE6.4 kmh SE 5.0 mph8.0 kmh 30.59 in1035.9 mb 0.00 in0.0 mm 0.00 in0.0 mm 0.00 in0.0 mm
03:37 AM 41.8°F5.4°C 34.1°F1.2°C 74% 4.0 mph SE6.4 kmh SE 5.0 mph8.0 kmh 30.59 in1035.9 mb 0.00 in0.0 mm 0.00 in0.0 mm 0.00 in0.0 mm
03:36 AM 41.9°F5.5°C 34.2°F1.2°C 74% 4.0 mph SE6.4 kmh SE 4.0 mph6.4 kmh 30.59 in1035.9 mb 0.00 in0.0 mm 0.00 in0.0 mm 0.00 in0.0 mm
03:35 AM 41.9°F5.5°C 34.2°F1.2°C 74% 3.0 mph SE4.8 kmh SE 4.0 mph6.4 kmh 30.59 in1035.9 mb 0.00 in0.0 mm 0.00 in0.0 mm 0.00 in0.0 mm
03:34 AM 41.9°F5.5°C 34.2°F1.2°C 74% 3.0 mph SE4.8 kmh SE 4.0 mph6.4 kmh 30.59 in1035.9 mb 0.00 in0.0 mm 0.00 in0.0 mm 0.00 in0.0 mm
03:33 AM 42.0°F5.6°C 34.3°F1.3°C 74% 3.0 mph SE4.8 kmh SE 4.0 mph6.4 kmh 30.59 in1035.9 mb 0.00 in0.0 mm 0.00 in0.0 mm 0.00 in0.0 mm
03:32 AM 42.1°F5.6°C 34.4°F1.3°C 74% 3.0 mph SE4.8 kmh SE 4.0 mph6.4 kmh 30.59 in1035.9 mb 0.00 in0.0 mm 0.00 in0.0 mm 0.00 in0.0 mm
03:31 AM 42.2°F5.7°C 34.5°F1.4°C 74% 3.0 mph SE4.8 kmh SE 4.0 mph6.4 kmh 30.59 in1035.9 mb 0.00 in0.0 mm 0.00 in0.0 mm 0.00 in0.0 mm
03:30 AM 42.2°F5.7°C 34.5°F1.4°C 74% 3.0 mph SE4.8 kmh SE 3.0 mph4.8 kmh 30.59 in1035.9 mb 0.00 in0.0 mm 0.00 in0.0 mm 0.00 in0.0 mm
03:29 AM 42.2°F5.7°C 34.5°F1.4°C 74% 3.0 mph SE4.8 kmh SE 4.0 mph6.4 kmh 30.59 in1035.9 mb 0.00 in0.0 mm 0.00 in0.0 mm 0.00 in0.0 mm
03:28 AM 42.3°F5.7°C 34.6°F1.4°C 74% 3.0 mph SE4.8 kmh SE 3.0 mph4.8 kmh 30.59 in1035.9 mb 0.00 in0.0 mm 0.00 in0.0 mm 0.00 in0.0 mm
03:27 AM 42.4°F5.8°C 34.7°F1.5°C 74% 3.0 mph SE4.8 kmh SE 4.0 mph6.4 kmh 30.59 in1035.9 mb 0.00 in0.0 mm 0.00 in0.0 mm 0.00 in0.0 mm
03:26 AM 42.4°F5.8°C 34.7°F1.5°C 74% 3.0 mph SE4.8 kmh SE 4.0 mph6.4 kmh 30.59 in1035.9 mb 0.00 in0.0 mm 0.00 in0.0 mm 0.00 in0.0 mm
03:25 AM 42.5°F5.8°C 34.8°F1.6°C 74% 3.0 mph SE4.8 kmh SE 4.0 mph6.4 kmh 30.59 in1035.9 mb 0.00 in0.0 mm 0.00 in0.0 mm 0.00 in0.0 mm
03:24 AM 42.6°F5.9°C 34.9°F1.6°C 74% 3.0 mph SE4.8 kmh SE 4.0 mph6.4 kmh 30.59 in1035.9 mb 0.00 in0.0 mm 0.00 in0.0 mm 0.00 in0.0 mm
03:23 AM 42.7°F5.9°C 35.0°F1.7°C 74% 3.0 mph SE4.8 kmh SE 3.0 mph4.8 kmh 30.59 in1035.9 mb 0.00 in0.0 mm 0.00 in0.0 mm 0.00 in0.0 mm
03:22 AM 42.7°F5.9°C 35.0°F1.7°C 74% 3.0 mph SE4.8 kmh SE 3.0 mph4.8 kmh 30.59 in1035.9 mb 0.00 in0.0 mm 0.00 in0.0 mm 0.00 in0.0 mm
03:21 AM 42.7°F5.9°C 35.0°F1.7°C 74% 2.0 mph SE3.2 kmh SE 3.0 mph4.8 kmh 30.59 in1035.9 mb 0.00 in0.0 mm 0.00 in0.0 mm 0.00 in0.0 mm
03:20 AM 42.8°F6.0°C 34.8°F1.6°C 73% 2.0 mph SE3.2 kmh SE 3.0 mph4.8 kmh 30.59 in1035.9 mb 0.00 in0.0 mm 0.00 in0.0 mm 0.00 in0.0 mm
03:19 AM 42.8°F6.0°C 35.1°F1.7°C 74% 1.0 mph SE1.6 kmh SE 2.0 mph3.2 kmh 30.59 in1035.9 mb 0.00 in0.0 mm 0.00 in0.0 mm 0.00 in0.0 mm
03:18 AM 42.8°F6.0°C 35.1°F1.7°C 74% 2.0 mph SE3.2 kmh SE 2.0 mph3.2 kmh 30.59 in1035.9 mb 0.00 in0.0 mm 0.00 in0.0 mm 0.00 in0.0 mm
03:17 AM 42.9°F6.1°C 35.2°F1.8°C 74% 2.0 mph SE3.2 kmh SE 3.0 mph4.8 kmh 30.59 in1035.9 mb 0.00 in0.0 mm 0.00 in0.0 mm 0.00 in0.0 mm
03:16 AM 42.9°F6.1°C 35.2°F1.8°C 74% 3.0 mph SE4.8 kmh SE 4.0 mph6.4 kmh 30.59 in1035.9 mb 0.00 in0.0 mm 0.00 in0.0 mm 0.00 in0.0 mm
03:15 AM 42.9°F6.1°C 35.2°F1.8°C 74% 3.0 mph SE4.8 kmh SE 4.0 mph6.4 kmh 30.59 in1035.9 mb 0.00 in0.0 mm 0.00 in0.0 mm 0.00 in0.0 mm
03:14 AM 42.9°F6.1°C 34.9°F1.6°C 73% 3.0 mph SE4.8 kmh SE 4.0 mph6.4 kmh 30.59 in1035.9 mb 0.00 in0.0 mm 0.00 in0.0 mm 0.00 in0.0 mm
03:13 AM 43.0°F6.1°C 34.9°F1.6°C 73% 3.0 mph SE4.8 kmh SE 5.0 mph8.0 kmh 30.59 in1035.9 mb 0.00 in0.0 mm 0.00 in0.0 mm 0.00 in0.0 mm
03:12 AM 43.0°F6.1°C 34.9°F1.6°C 73% 4.0 mph SE6.4 kmh SE 5.0 mph8.0 kmh 30.59 in1035.9 mb 0.00 in0.0 mm 0.00 in0.0 mm 0.00 in0.0 mm
03:11 AM 43.0°F6.1°C 34.9°F1.6°C 73% 4.0 mph SE6.4 kmh SE 4.0 mph6.4 kmh 30.59 in1035.9 mb 0.00 in0.0 mm 0.00 in0.0 mm 0.00 in0.0 mm
03:10 AM 43.0°F6.1°C 34.9°F1.6°C 73% 3.0 mph SE4.8 kmh SE 4.0 mph6.4 kmh 30.59 in1035.9 mb 0.00 in0.0 mm 0.00 in0.0 mm 0.00 in0.0 mm
03:09 AM 43.1°F6.2°C 35.0°F1.7°C 73% 4.0 mph SE6.4 kmh SE 4.0 mph6.4 kmh 30.59 in1035.9 mb 0.00 in0.0 mm 0.00 in0.0 mm 0.00 in0.0 mm
03:08 AM 43.1°F6.2°C 35.0°F1.7°C 73% 4.0 mph SE6.4 kmh SE 4.0 mph6.4 kmh 30.59 in1035.9 mb 0.00 in0.0 mm 0.00 in0.0 mm 0.00 in0.0 mm
03:07 AM 43.2°F6.2°C 35.1°F1.7°C 73% 4.0 mph SE6.4 kmh SE 5.0 mph8.0 kmh 30.59 in1035.9 mb 0.00 in0.0 mm 0.00 in0.0 mm 0.00 in0.0 mm
03:06 AM 43.3°F6.3°C 35.2°F1.8°C 73% 3.0 mph SE4.8 kmh SE 4.0 mph6.4 kmh 30.59 in1035.9 mb 0.00 in0.0 mm 0.00 in0.0 mm 0.00 in0.0 mm
03:05 AM 43.3°F6.3°C 35.2°F1.8°C 73% 3.0 mph SE4.8 kmh SE 3.0 mph4.8 kmh 30.59 in1035.9 mb 0.00 in0.0 mm 0.00 in0.0 mm 0.00 in0.0 mm
03:04 AM 43.4°F6.3°C 35.3°F1.8°C 73% 3.0 mph SE4.8 kmh SE 3.0 mph4.8 kmh 30.59 in1035.9 mb 0.00 in0.0 mm 0.00 in0.0 mm 0.00 in0.0 mm
03:03 AM 43.4°F6.3°C 35.3°F1.8°C 73% 3.0 mph SE4.8 kmh SE 3.0 mph4.8 kmh 30.59 in1035.9 mb 0.00 in0.0 mm 0.00 in0.0 mm 0.00 in0.0 mm
03:02 AM 43.4°F6.3°C 35.3°F1.8°C 73% 3.0 mph SE4.8 kmh SE 4.0 mph6.4 kmh 30.59 in1035.9 mb 0.00 in0.0 mm 0.00 in0.0 mm 0.00 in0.0 mm
03:01 AM 43.4°F6.3°C 35.3°F1.8°C 73% 3.0 mph SE4.8 kmh SE 4.0 mph6.4 kmh 30.59 in1035.9 mb 0.00 in0.0 mm 0.00 in0.0 mm 0.00 in0.0 mm
03:00 AM 43.5°F6.4°C 35.4°F1.9°C 73% 4.0 mph SE6.4 kmh SE 4.0 mph6.4 kmh 30.59 in1035.9 mb 0.00 in0.0 mm 0.00 in0.0 mm 0.00 in0.0 mm
02:59 AM 43.5°F6.4°C 35.4°F1.9°C 73% 4.0 mph SE6.4 kmh SE 5.0 mph8.0 kmh 30.59 in1035.9 mb 0.00 in0.0 mm 0.00 in0.0 mm 0.00 in0.0 mm
02:58 AM 43.6°F6.4°C 35.5°F1.9°C 73% 4.0 mph SE6.4 kmh SE 5.0 mph8.0 kmh 30.59 in1035.9 mb 0.00 in0.0 mm 0.00 in0.0 mm 0.00 in0.0 mm
02:57 AM 43.6°F6.4°C 35.2°F1.8°C 72% 3.0 mph SE4.8 kmh SE 4.0 mph6.4 kmh 30.59 in1035.9 mb 0.00 in0.0 mm 0.00 in0.0 mm 0.00 in0.0 mm
02:56 AM 43.6°F6.4°C 35.2°F1.8°C 72% 4.0 mph SE6.4 kmh SE 5.0 mph8.0 kmh 30.59 in1035.9 mb 0.00 in0.0 mm 0.00 in0.0 mm 0.00 in0.0 mm
02:55 AM 43.6°F6.4°C 35.2°F1.8°C 72% 3.0 mph SE4.8 kmh SE 4.0 mph6.4 kmh 30.59 in1035.9 mb 0.00 in0.0 mm 0.00 in0.0 mm 0.00 in0.0 mm
02:54 AM 43.6°F6.4°C 35.5°F1.9°C 73% 4.0 mph SE6.4 kmh SE 5.0 mph8.0 kmh 30.59 in1035.9 mb 0.00 in0.0 mm 0.00 in0.0 mm 0.00 in0.0 mm
02:53 AM 43.6°F6.4°C 35.2°F1.8°C 72% 4.0 mph SE6.4 kmh SE 5.0 mph8.0 kmh 30.59 in1035.9 mb 0.00 in0.0 mm 0.00 in0.0 mm 0.00 in0.0 mm
02:52 AM 43.6°F6.4°C 35.2°F1.8°C 72% 4.0 mph SE6.4 kmh SE 4.0 mph6.4 kmh 30.59 in1035.9 mb 0.00 in0.0 mm 0.00 in0.0 mm 0.00 in0.0 mm
02:51 AM 43.7°F6.5°C 35.3°F1.8°C 72% 3.0 mph SE4.8 kmh SE 4.0 mph6.4 kmh 30.59 in1035.9 mb 0.00 in0.0 mm 0.00 in0.0 mm 0.00 in0.0 mm
02:50 AM 43.7°F6.5°C 35.3°F1.8°C 72% 4.0 mph SE6.4 kmh SE 5.0 mph8.0 kmh 30.59 in1035.9 mb 0.00 in0.0 mm 0.00 in0.0 mm 0.00 in0.0 mm
02:49 AM 43.7°F6.5°C 35.3°F1.8°C 72% 4.0 mph SE6.4 kmh SE 5.0 mph8.0 kmh 30.59 in1035.9 mb 0.00 in0.0 mm 0.00 in0.0 mm 0.00 in0.0 mm
02:48 AM 43.8°F6.6°C 35.4°F1.9°C 72% 4.0 mph SE6.4 kmh SE 5.0 mph8.0 kmh 30.59 in1035.9 mb 0.00 in0.0 mm 0.00 in0.0 mm 0.00 in0.0 mm
02:47 AM 43.8°F6.6°C 35.4°F1.9°C 72% 4.0 mph SE6.4 kmh SE 5.0 mph8.0 kmh 30.59 in1035.9 mb 0.00 in0.0 mm 0.00 in0.0 mm 0.00 in0.0 mm
02:46 AM 43.8°F6.6°C 35.4°F1.9°C 72% 5.0 mph SE8.0 kmh SE 7.0 mph11.3 kmh 30.59 in1035.9 mb 0.00 in0.0 mm 0.00 in0.0 mm 0.00 in0.0 mm
02:45 AM 43.8°F6.6°C 35.4°F1.9°C 72% 5.0 mph SE8.0 kmh SE 7.0 mph11.3 kmh 30.59 in1035.9 mb 0.00 in0.0 mm 0.00 in0.0 mm 0.00 in0.0 mm
02:44 AM 43.9°F6.6°C 35.5°F1.9°C 72% 6.0 mph SE9.7 kmh SE 7.0 mph11.3 kmh 30.59 in1035.9 mb 0.00 in0.0 mm 0.00 in0.0 mm 0.00 in0.0 mm
02:43 AM 43.9°F6.6°C 35.5°F1.9°C 72% 7.0 mph SE11.3 kmh SE 7.0 mph11.3 kmh 30.59 in1035.9 mb 0.00 in0.0 mm 0.00 in0.0 mm 0.00 in0.0 mm
02:42 AM 43.9°F6.6°C 35.5°F1.9°C 72% 6.0 mph SE9.7 kmh SE 7.0 mph11.3 kmh 30.59 in1035.9 mb 0.00 in0.0 mm 0.00 in0.0 mm 0.00 in0.0 mm
02:41 AM 43.9°F6.6°C 35.5°F1.9°C 72% 6.0 mph SE9.7 kmh SE 8.0 mph12.9 kmh 30.59 in1035.9 mb 0.00 in0.0 mm 0.00 in0.0 mm 0.00 in0.0 mm
02:40 AM 43.9°F6.6°C 35.5°F1.9°C 72% 7.0 mph SE11.3 kmh SE 8.0 mph12.9 kmh 30.59 in1035.9 mb 0.00 in0.0 mm 0.00 in0.0 mm 0.00 in0.0 mm
02:39 AM 43.9°F6.6°C 35.5°F1.9°C 72% 7.0 mph SE11.3 kmh SE 8.0 mph12.9 kmh 30.59 in1035.9 mb 0.00 in0.0 mm 0.00 in0.0 mm 0.00 in0.0 mm
02:38 AM 44.0°F6.7°C 35.6°F2.0°C 72% 6.0 mph SE9.7 kmh SE 8.0 mph12.9 kmh 30.59 in1035.9 mb 0.00 in0.0 mm 0.00 in0.0 mm 0.00 in0.0 mm
02:37 AM 44.0°F6.7°C 35.6°F2.0°C 72% 7.0 mph SE11.3 kmh SE 8.0 mph12.9 kmh 30.59 in1035.9 mb 0.00 in0.0 mm 0.00 in0.0 mm 0.00 in0.0 mm
02:36 AM 44.0°F6.7°C 35.6°F2.0°C 72% 7.0 mph SE11.3 kmh SE 8.0 mph12.9 kmh 30.59 in1035.9 mb 0.00 in0.0 mm 0.00 in0.0 mm 0.00 in0.0 mm
02:35 AM 44.0°F6.7°C 35.6°F2.0°C 72% 7.0 mph SE11.3 kmh SE 8.0 mph12.9 kmh 30.59 in1035.9 mb 0.00 in0.0 mm 0.00 in0.0 mm 0.00 in0.0 mm
02:34 AM 44.0°F6.7°C 35.6°F2.0°C 72% 6.0 mph SE9.7 kmh SE 8.0 mph12.9 kmh 30.59 in1035.9 mb 0.00 in0.0 mm 0.00 in0.0 mm 0.00 in0.0 mm
02:33 AM 44.0°F6.7°C 35.6°F2.0°C 72% 7.0 mph SE11.3 kmh SE 8.0 mph12.9 kmh 30.59 in1035.9 mb 0.00 in0.0 mm 0.00 in0.0 mm 0.00 in0.0 mm
02:32 AM 44.0°F6.7°C 35.6°F2.0°C 72% 7.0 mph SE11.3 kmh SE 8.0 mph12.9 kmh 30.58 in1035.6 mb 0.00 in0.0 mm 0.00 in0.0 mm 0.00 in0.0 mm
02:31 AM 44.0°F6.7°C 35.6°F2.0°C 72% 7.0 mph SE11.3 kmh SE 9.0 mph14.5 kmh 30.58 in1035.6 mb 0.00 in0.0 mm 0.00 in0.0 mm 0.00 in0.0 mm
02:30 AM 44.0°F6.7°C 35.6°F2.0°C 72% 7.0 mph SE11.3 kmh SE 8.0 mph12.9 kmh 30.58 in1035.6 mb 0.00 in0.0 mm 0.00 in0.0 mm 0.00 in0.0 mm
02:29 AM 43.9°F6.6°C 35.1°F1.7°C 71% 8.0 mph SE12.9 kmh SE 9.0 mph14.5 kmh 30.58 in1035.6 mb 0.00 in0.0 mm 0.00 in0.0 mm 0.00 in0.0 mm
02:28 AM 44.0°F6.7°C 35.2°F1.8°C 71% 7.0 mph SE11.3 kmh SE 8.0 mph12.9 kmh 30.58 in1035.6 mb 0.00 in0.0 mm 0.00 in0.0 mm 0.00 in0.0 mm
02:27 AM 43.9°F6.6°C 35.1°F1.7°C 71% 7.0 mph SE11.3 kmh SE 8.0 mph12.9 kmh 30.58 in1035.6 mb 0.00 in0.0 mm 0.00 in0.0 mm 0.00 in0.0 mm
02:26 AM 44.0°F6.7°C 35.6°F2.0°C 72% 6.0 mph SE9.7 kmh SE 8.0 mph12.9 kmh 30.58 in1035.6 mb 0.00 in0.0 mm 0.00 in0.0 mm 0.00 in0.0 mm
02:25 AM 44.0°F6.7°C 35.6°F2.0°C 72% 7.0 mph SE11.3 kmh SE 8.0 mph12.9 kmh 30.58 in1035.6 mb 0.00 in0.0 mm 0.00 in0.0 mm 0.00 in0.0 mm
02:24 AM 44.0°F6.7°C 35.6°F2.0°C 72% 7.0 mph SE11.3 kmh SE 8.0 mph12.9 kmh 30.58 in1035.6 mb 0.00 in0.0 mm 0.00 in0.0 mm 0.00 in0.0 mm
02:23 AM 43.9°F6.6°C 35.5°F1.9°C 72% 7.0 mph SE11.3 kmh SE 8.0 mph12.9 kmh 30.58 in1035.6 mb 0.00 in0.0 mm 0.00 in0.0 mm 0.00 in0.0 mm
02:22 AM 43.9°F6.6°C 35.5°F1.9°C 72% 7.0 mph SE11.3 kmh SE 8.0 mph12.9 kmh 30.58 in1035.6 mb 0.00 in0.0 mm 0.00 in0.0 mm 0.00 in0.0 mm
02:21 AM 43.9°F6.6°C 35.5°F1.9°C 72% 7.0 mph SE11.3 kmh SE 8.0 mph12.9 kmh 30.58 in1035.6 mb 0.00 in0.0 mm 0.00 in0.0 mm 0.00 in0.0 mm
02:20 AM 43.8°F6.6°C 35.4°F1.9°C 72% 7.0 mph SE11.3 kmh SE 8.0 mph12.9 kmh 30.59 in1035.9 mb 0.00 in0.0 mm 0.00 in0.0 mm 0.00 in0.0 mm
02:19 AM 43.8°F6.6°C 35.4°F1.9°C 72% 7.0 mph SE11.3 kmh SE 8.0 mph12.9 kmh 30.59 in1035.9 mb 0.00 in0.0 mm 0.00 in0.0 mm 0.00 in0.0 mm
02:18 AM 43.7°F6.5°C 35.3°F1.8°C 72% 7.0 mph SE11.3 kmh SE 8.0 mph12.9 kmh 30.59 in1035.9 mb 0.00 in0.0 mm 0.00 in0.0 mm 0.00 in0.0 mm
02:17 AM 43.6°F6.4°C 35.2°F1.8°C 72% 7.0 mph SE11.3 kmh SE 8.0 mph12.9 kmh 30.59 in1035.9 mb 0.00 in0.0 mm 0.00 in0.0 mm 0.00 in0.0 mm
02:16 AM 43.6°F6.4°C 35.2°F1.8°C 72% 6.0 mph SE9.7 kmh SE 8.0 mph12.9 kmh 30.59 in1035.9 mb 0.00 in0.0 mm 0.00 in0.0 mm 0.00 in0.0 mm
02:15 AM 43.6°F6.4°C 35.2°F1.8°C 72% 6.0 mph SE9.7 kmh SE 8.0 mph12.9 kmh 30.59 in1035.9 mb 0.00 in0.0 mm 0.00 in0.0 mm 0.00 in0.0 mm
02:14 AM 43.5°F6.4°C 35.1°F1.7°C 72% 7.0 mph SE11.3 kmh SE 8.0 mph12.9 kmh 30.59 in1035.9 mb 0.00 in0.0 mm 0.00 in0.0 mm 0.00 in0.0 mm
02:13 AM 43.5°F6.4°C 35.1°F1.7°C 72% 7.0 mph SE11.3 kmh SE 8.0 mph12.9 kmh 30.59 in1035.9 mb 0.00 in0.0 mm 0.00 in0.0 mm 0.00 in0.0 mm
02:12 AM 43.4°F6.3°C 34.6°F1.4°C 71% 7.0 mph SE11.3 kmh SE 8.0 mph12.9 kmh 30.59 in1035.9 mb 0.00 in0.0 mm 0.00 in0.0 mm 0.00 in0.0 mm
02:11 AM 43.4°F6.3°C 34.6°F1.4°C 71% 6.0 mph SE9.7 kmh SE 8.0 mph12.9 kmh 30.59 in1035.9 mb 0.00 in0.0 mm 0.00 in0.0 mm 0.00 in0.0 mm
02:10 AM 43.4°F6.3°C 34.6°F1.4°C 71% 7.0 mph SE11.3 kmh SE 8.0 mph12.9 kmh 30.59 in1035.9 mb 0.00 in0.0 mm 0.00 in0.0 mm 0.00 in0.0 mm
02:09 AM 43.4°F6.3°C 34.6°F1.4°C 71% 6.0 mph SE9.7 kmh SE 8.0 mph12.9 kmh 30.59 in1035.9 mb 0.00 in0.0 mm 0.00 in0.0 mm 0.00 in0.0 mm
02:08 AM 43.4°F6.3°C 34.6°F1.4°C 71% 6.0 mph SE9.7 kmh SE 7.0 mph11.3 kmh 30.59 in1035.9 mb 0.00 in0.0 mm 0.00 in0.0 mm 0.00 in0.0 mm
02:07 AM 43.4°F6.3°C 34.6°F1.4°C 71% 6.0 mph SE9.7 kmh SE 8.0 mph12.9 kmh 30.59 in1035.9 mb 0.00 in0.0 mm 0.00 in0.0 mm 0.00 in0.0 mm
02:06 AM 43.5°F6.4°C 34.7°F1.5°C 71% 7.0 mph SE11.3 kmh SE 8.0 mph12.9 kmh 30.59 in1035.9 mb 0.00 in0.0 mm 0.00 in0.0 mm 0.00 in0.0 mm
02:05 AM 43.4°F6.3°C 34.6°F1.4°C 71% 5.0 mph SE8.0 kmh SE 7.0 mph11.3 kmh 30.59 in1035.9 mb 0.00 in0.0 mm 0.00 in0.0 mm 0.00 in0.0 mm
02:04 AM 43.6°F6.4°C 34.5°F1.4°C 70% 6.0 mph SE9.7 kmh SE 7.0 mph11.3 kmh 30.59 in1035.9 mb 0.00 in0.0 mm 0.00 in0.0 mm 0.00 in0.0 mm
02:03 AM 43.6°F6.4°C 34.5°F1.4°C 70% 6.0 mph SE9.7 kmh SE 8.0 mph12.9 kmh 30.59 in1035.9 mb 0.00 in0.0 mm 0.00 in0.0 mm 0.00 in0.0 mm
02:02 AM 43.6°F6.4°C 34.5°F1.4°C 70% 6.0 mph SE9.7 kmh SE 7.0 mph11.3 kmh 30.59 in1035.9 mb 0.00 in0.0 mm 0.00 in0.0 mm 0.00 in0.0 mm
02:01 AM 43.7°F6.5°C 34.6°F1.4°C 70% 4.0 mph SE6.4 kmh SE 5.0 mph8.0 kmh 30.59 in1035.9 mb 0.00 in0.0 mm 0.00 in0.0 mm 0.00 in0.0 mm
02:00 AM 43.8°F6.6°C 34.7°F1.5°C 70% 4.0 mph SE6.4 kmh SE 5.0 mph8.0 kmh 30.59 in1035.9 mb 0.00 in0.0 mm 0.00 in0.0 mm 0.00 in0.0 mm
01:59 AM 43.8°F6.6°C 34.7°F1.5°C 70% 4.0 mph SE6.4 kmh SE 5.0 mph8.0 kmh 30.59 in1035.9 mb 0.00 in0.0 mm 0.00 in0.0 mm 0.00 in0.0 mm
01:58 AM 43.9°F6.6°C 34.8°F1.6°C 70% 4.0 mph SE6.4 kmh SE 5.0 mph8.0 kmh 30.59 in1035.9 mb 0.00 in0.0 mm 0.00 in0.0 mm 0.00 in0.0 mm
01:57 AM 43.9°F6.6°C 34.8°F1.6°C 70% 4.0 mph SE6.4 kmh SE 5.0 mph8.0 kmh 30.59 in1035.9 mb 0.00 in0.0 mm 0.00 in0.0 mm 0.00 in0.0 mm
01:56 AM 44.0°F6.7°C 34.9°F1.6°C 70% 4.0 mph SE6.4 kmh SE 5.0 mph8.0 kmh 30.59 in1035.9 mb 0.00 in0.0 mm 0.00 in0.0 mm 0.00 in0.0 mm
01:55 AM 44.0°F6.7°C 34.9°F1.6°C 70% 4.0 mph SE6.4 kmh SE 5.0 mph8.0 kmh 30.59 in1035.9 mb 0.00 in0.0 mm 0.00 in0.0 mm 0.00 in0.0 mm
01:54 AM 44.0°F6.7°C 34.9°F1.6°C 70% 4.0 mph SE6.4 kmh SE 5.0 mph8.0 kmh 30.59 in1035.9 mb 0.00 in0.0 mm 0.00 in0.0 mm 0.00 in0.0 mm
01:53 AM 43.9°F6.6°C 34.8°F1.6°C 70% 4.0 mph SE6.4 kmh SE 5.0 mph8.0 kmh 30.59 in1035.9 mb 0.00 in0.0 mm 0.00 in0.0 mm 0.00 in0.0 mm
01:52 AM 43.9°F6.6°C 34.8°F1.6°C 70% 5.0 mph SE8.0 kmh SE 7.0 mph11.3 kmh 30.59 in1035.9 mb 0.00 in0.0 mm 0.00 in0.0 mm 0.00 in0.0 mm
01:51 AM 43.9°F6.6°C 34.8°F1.6°C 70% 4.0 mph SE6.4 kmh SE 7.0 mph11.3 kmh 30.59 in1035.9 mb 0.00 in0.0 mm 0.00 in0.0 mm 0.00 in0.0 mm
01:50 AM 43.9°F6.6°C 34.8°F1.6°C 70% 5.0 mph SE8.0 kmh SE 7.0 mph11.3 kmh 30.59 in1035.9 mb 0.00 in0.0 mm 0.00 in0.0 mm 0.00 in0.0 mm
01:49 AM 43.8°F6.6°C 34.7°F1.5°C 70% 4.0 mph ESE6.4 kmh ESE 5.0 mph8.0 kmh 30.59 in1035.9 mb 0.00 in0.0 mm 0.00 in0.0 mm 0.00 in0.0 mm
01:48 AM 43.8°F6.6°C 35.0°F1.7°C 71% 4.0 mph ESE6.4 kmh ESE 5.0 mph8.0 kmh 30.59 in1035.9 mb 0.00 in0.0 mm 0.00 in0.0 mm 0.00 in0.0 mm
01:47 AM 43.7°F6.5°C 34.9°F1.6°C 71% 5.0 mph ESE8.0 kmh ESE 7.0 mph11.3 kmh 30.59 in1035.9 mb 0.00 in0.0 mm 0.00 in0.0 mm 0.00 in0.0 mm
01:46 AM 43.7°F6.5°C 34.9°F1.6°C 71% 5.0 mph SE8.0 kmh SE 7.0 mph11.3 kmh 30.59 in1035.9 mb 0.00 in0.0 mm 0.00 in0.0 mm 0.00 in0.0 mm
01:45 AM 43.6°F6.4°C 34.8°F1.6°C 71% 5.0 mph SE8.0 kmh SE 7.0 mph11.3 kmh 30.59 in1035.9 mb 0.00 in0.0 mm 0.00 in0.0 mm 0.00 in0.0 mm
01:44 AM 43.6°F6.4°C 34.8°F1.6°C 71% 6.0 mph SE9.7 kmh SE 8.0 mph12.9 kmh 30.59 in1035.9 mb 0.00 in0.0 mm 0.00 in0.0 mm 0.00 in0.0 mm
01:43 AM 43.6°F6.4°C 34.8°F1.6°C 71% 5.0 mph SE8.0 kmh SE 7.0 mph11.3 kmh 30.59 in1035.9 mb 0.00 in0.0 mm 0.00 in0.0 mm 0.00 in0.0 mm
01:42 AM 43.6°F6.4°C 34.8°F1.6°C 71% 5.0 mph SE8.0 kmh SE 7.0 mph11.3 kmh 30.59 in1035.9 mb 0.00 in0.0 mm 0.00 in0.0 mm 0.00 in0.0 mm
01:41 AM 43.6°F6.4°C 34.8°F1.6°C 71% 4.0 mph SE6.4 kmh SE 5.0 mph8.0 kmh 30.59 in1035.9 mb 0.00 in0.0 mm 0.00 in0.0 mm 0.00 in0.0 mm
01:40 AM 43.6°F6.4°C 34.8°F1.6°C 71% 5.0 mph SE8.0 kmh SE 7.0 mph11.3 kmh 30.59 in1035.9 mb 0.00 in0.0 mm 0.00 in0.0 mm 0.00 in0.0 mm
01:39 AM 43.7°F6.5°C 34.6°F1.4°C 70% 4.0 mph SE6.4 kmh SE 5.0 mph8.0 kmh 30.59 in1035.9 mb 0.00 in0.0 mm 0.00 in0.0 mm 0.00 in0.0 mm
01:38 AM 43.7°F6.5°C 34.6°F1.4°C 70% 4.0 mph SE6.4 kmh SE 5.0 mph8.0 kmh 30.59 in1035.9 mb 0.00 in0.0 mm 0.00 in0.0 mm 0.00 in0.0 mm
01:37 AM 43.6°F6.4°C 34.5°F1.4°C 70% 4.0 mph SE6.4 kmh SE 5.0 mph8.0 kmh 30.59 in1035.9 mb 0.00 in0.0 mm 0.00 in0.0 mm 0.00 in0.0 mm
01:36 AM 43.7°F6.5°C 34.6°F1.4°C 70% 5.0 mph SE8.0 kmh SE 7.0 mph11.3 kmh 30.58 in1035.6 mb 0.00 in0.0 mm 0.00 in0.0 mm 0.00 in0.0 mm
01:35 AM 43.7°F6.5°C 34.2°F1.2°C 69% 5.0 mph SE8.0 kmh SE 7.0 mph11.3 kmh 30.59 in1035.9 mb 0.00 in0.0 mm 0.00 in0.0 mm 0.00 in0.0 mm
01:34 AM 43.7°F6.5°C 34.2°F1.2°C 69% 5.0 mph SE8.0 kmh SE 7.0 mph11.3 kmh 30.59 in1035.9 mb 0.00 in0.0 mm 0.00 in0.0 mm 0.00 in0.0 mm
01:33 AM 43.8°F6.6°C 34.3°F1.3°C 69% 4.0 mph SE6.4 kmh SE 7.0 mph11.3 kmh 30.58 in1035.6 mb 0.00 in0.0 mm 0.00 in0.0 mm 0.00 in0.0 mm
01:32 AM 43.7°F6.5°C 34.2°F1.2°C 69% 4.0 mph SE6.4 kmh SE 5.0 mph8.0 kmh 30.58 in1035.6 mb 0.00 in0.0 mm 0.00 in0.0 mm 0.00 in0.0 mm
01:31 AM 43.8°F6.6°C 34.3°F1.3°C 69% 4.0 mph SE6.4 kmh SE 5.0 mph8.0 kmh 30.58 in1035.6 mb 0.00 in0.0 mm 0.00 in0.0 mm 0.00 in0.0 mm
01:30 AM 43.8°F6.6°C 34.3°F1.3°C 69% 5.0 mph SE8.0 kmh SE 7.0 mph11.3 kmh 30.58 in1035.6 mb 0.00 in0.0 mm 0.00 in0.0 mm 0.00 in0.0 mm
01:29 AM 43.8°F6.6°C 34.3°F1.3°C 69% 5.0 mph SE8.0 kmh SE 7.0 mph11.3 kmh 30.58 in1035.6 mb 0.00 in0.0 mm 0.00 in0.0 mm 0.00 in0.0 mm
01:28 AM 43.8°F6.6°C 33.9°F1.1°C 68% 5.0 mph SE8.0 kmh SE 6.0 mph9.7 kmh 30.59 in1035.9 mb 0.00 in0.0 mm 0.00 in0.0 mm 0.00 in0.0 mm
01:27 AM 43.8°F6.6°C 33.9°F1.1°C 68% 4.0 mph SE6.4 kmh SE 5.0 mph8.0 kmh 30.58 in1035.6 mb 0.00 in0.0 mm 0.00 in0.0 mm 0.00 in0.0 mm
01:26 AM 43.9°F6.6°C 34.0°F1.1°C 68% 4.0 mph SE6.4 kmh SE 5.0 mph8.0 kmh 30.58 in1035.6 mb 0.00 in0.0 mm 0.00 in0.0 mm 0.00 in0.0 mm
01:25 AM 43.9°F6.6°C 34.0°F1.1°C 68% 3.0 mph SE4.8 kmh SE 4.0 mph6.4 kmh 30.58 in1035.6 mb 0.00 in0.0 mm 0.00 in0.0 mm 0.00 in0.0 mm
01:24 AM 43.9°F6.6°C 34.0°F1.1°C 68% 4.0 mph SE6.4 kmh SE 5.0 mph8.0 kmh 30.58 in1035.6 mb 0.00 in0.0 mm 0.00 in0.0 mm 0.00 in0.0 mm
01:23 AM 44.0°F6.7°C 34.1°F1.2°C 68% 4.0 mph SE6.4 kmh SE 5.0 mph8.0 kmh 30.58 in1035.6 mb 0.00 in0.0 mm 0.00 in0.0 mm 0.00 in0.0 mm
01:22 AM 44.1°F6.7°C 34.2°F1.2°C 68% 4.0 mph SE6.4 kmh SE 7.0 mph11.3 kmh 30.58 in1035.6 mb 0.00 in0.0 mm 0.00 in0.0 mm 0.00 in0.0 mm
01:21 AM 44.1°F6.7°C 34.2°F1.2°C 68% 4.0 mph SE6.4 kmh SE 4.0 mph6.4 kmh 30.58 in1035.6 mb 0.00 in0.0 mm 0.00 in0.0 mm 0.00 in0.0 mm
01:20 AM 44.1°F6.7°C 34.2°F1.2°C 68% 5.0 mph SSE8.0 kmh SSE 7.0 mph11.3 kmh 30.58 in1035.6 mb 0.00 in0.0 mm 0.00 in0.0 mm 0.00 in0.0 mm
01:19 AM 44.2°F6.8°C 34.3°F1.3°C 68% 4.0 mph SE6.4 kmh SE 5.0 mph8.0 kmh 30.58 in1035.6 mb 0.00 in0.0 mm 0.00 in0.0 mm 0.00 in0.0 mm
01:18 AM 44.2°F6.8°C 34.3°F1.3°C 68% 4.0 mph SE6.4 kmh SE 5.0 mph8.0 kmh 30.58 in1035.6 mb 0.00 in0.0 mm 0.00 in0.0 mm 0.00 in0.0 mm
01:17 AM 44.3°F6.8°C 34.4°F1.3°C 68% 4.0 mph SE6.4 kmh SE 5.0 mph8.0 kmh 30.58 in1035.6 mb 0.00 in0.0 mm 0.00 in0.0 mm 0.00 in0.0 mm
01:16 AM 44.3°F6.8°C 34.4°F1.3°C 68% 5.0 mph SE8.0 kmh SE 7.0 mph11.3 kmh 30.58 in1035.6 mb 0.00 in0.0 mm 0.00 in0.0 mm 0.00 in0.0 mm
01:15 AM 44.4°F6.9°C 34.5°F1.4°C 68% 4.0 mph SE6.4 kmh SE 6.0 mph9.7 kmh 30.58 in1035.6 mb 0.00 in0.0 mm 0.00 in0.0 mm 0.00 in0.0 mm
01:14 AM 44.4°F6.9°C 34.5°F1.4°C 68% 7.0 mph SE11.3 kmh SE 8.0 mph12.9 kmh 30.58 in1035.6 mb 0.00 in0.0 mm 0.00 in0.0 mm 0.00 in0.0 mm
01:13 AM 44.5°F6.9°C 34.6°F1.4°C 68% 7.0 mph SE11.3 kmh SE 8.0 mph12.9 kmh 30.58 in1035.6 mb 0.00 in0.0 mm 0.00 in0.0 mm 0.00 in0.0 mm
01:12 AM 44.5°F6.9°C 34.6°F1.4°C 68% 4.0 mph SE6.4 kmh SE 7.0 mph11.3 kmh 30.58 in1035.6 mb 0.00 in0.0 mm 0.00 in0.0 mm 0.00 in0.0 mm
01:11 AM 44.5°F6.9°C 34.6°F1.4°C 68% 5.0 mph SE8.0 kmh SE 7.0 mph11.3 kmh 30.59 in1035.9 mb 0.00 in0.0 mm 0.00 in0.0 mm 0.00 in0.0 mm
01:10 AM 44.5°F6.9°C 34.6°F1.4°C 68% 6.0 mph SE9.7 kmh SE 8.0 mph12.9 kmh 30.58 in1035.6 mb 0.00 in0.0 mm 0.00 in0.0 mm 0.00 in0.0 mm
01:09 AM 44.6°F7.0°C 34.7°F1.5°C 68% 6.0 mph SE9.7 kmh SE 8.0 mph12.9 kmh 30.58 in1035.6 mb 0.00 in0.0 mm 0.00 in0.0 mm 0.00 in0.0 mm
01:08 AM 44.6°F7.0°C 34.7°F1.5°C 68% 6.0 mph SE9.7 kmh SE 9.0 mph14.5 kmh 30.58 in1035.6 mb 0.00 in0.0 mm 0.00 in0.0 mm 0.00 in0.0 mm
01:07 AM 44.6°F7.0°C 34.7°F1.5°C 68% 5.0 mph SE8.0 kmh SE 8.0 mph12.9 kmh 30.58 in1035.6 mb 0.00 in0.0 mm 0.00 in0.0 mm 0.00 in0.0 mm
01:06 AM 44.6°F7.0°C 34.7°F1.5°C 68% 5.0 mph SE8.0 kmh SE 7.0 mph11.3 kmh 30.58 in1035.6 mb 0.00 in0.0 mm 0.00 in0.0 mm 0.00 in0.0 mm
01:05 AM 44.6°F7.0°C 34.7°F1.5°C 68% 5.0 mph SE8.0 kmh SE 7.0 mph11.3 kmh 30.58 in1035.6 mb 0.00 in0.0 mm 0.00 in0.0 mm 0.00 in0.0 mm
01:04 AM 44.6°F7.0°C 34.7°F1.5°C 68% 5.0 mph SE8.0 kmh SE 7.0 mph11.3 kmh 30.59 in1035.9 mb 0.00 in0.0 mm 0.00 in0.0 mm 0.00 in0.0 mm
01:03 AM 44.6°F7.0°C 34.7°F1.5°C 68% 5.0 mph SE8.0 kmh SE 7.0 mph11.3 kmh 30.58 in1035.6 mb 0.00 in0.0 mm 0.00 in0.0 mm 0.00 in0.0 mm
01:02 AM 44.7°F7.1°C 34.8°F1.6°C 68% 6.0 mph SE9.7 kmh SE 8.0 mph12.9 kmh 30.58 in1035.6 mb 0.00 in0.0 mm 0.00 in0.0 mm 0.00 in0.0 mm
01:01 AM 44.7°F7.1°C 34.8°F1.6°C 68% 6.0 mph SE9.7 kmh SE 8.0 mph12.9 kmh 30.58 in1035.6 mb 0.00 in0.0 mm 0.00 in0.0 mm 0.00 in0.0 mm
01:00 AM 44.7°F7.1°C 34.8°F1.6°C 68% 6.0 mph SE9.7 kmh SE 8.0 mph12.9 kmh 30.58 in1035.6 mb 0.00 in0.0 mm 0.00 in0.0 mm 0.00 in0.0 mm
12:59 AM 44.6°F7.0°C 34.3°F1.3°C 67% 6.0 mph SE9.7 kmh SE 8.0 mph12.9 kmh 30.58 in1035.6 mb 0.00 in0.0 mm 0.00 in0.0 mm 0.00 in0.0 mm
12:58 AM 44.6°F7.0°C 34.3°F1.3°C 67% 7.0 mph SE11.3 kmh SE 9.0 mph14.5 kmh 30.58 in1035.6 mb 0.00 in0.0 mm 0.00 in0.0 mm 0.00 in0.0 mm
12:57 AM 44.6°F7.0°C 34.3°F1.3°C 67% 6.0 mph SE9.7 kmh SE 9.0 mph14.5 kmh 30.58 in1035.6 mb 0.00 in0.0 mm 0.00 in0.0 mm 0.00 in0.0 mm
12:56 AM 44.7°F7.1°C 34.4°F1.3°C 67% 7.0 mph SE11.3 kmh SE 8.0 mph12.9 kmh 30.58 in1035.6 mb 0.00 in0.0 mm 0.00 in0.0 mm 0.00 in0.0 mm
12:55 AM 44.6°F7.0°C 34.3°F1.3°C 67% 6.0 mph SE9.7 kmh SE 8.0 mph12.9 kmh 30.58 in1035.6 mb 0.00 in0.0 mm 0.00 in0.0 mm 0.00 in0.0 mm
12:54 AM 44.7°F7.1°C 34.8°F1.6°C 68% 6.0 mph SE9.7 kmh SE 8.0 mph12.9 kmh 30.58 in1035.6 mb 0.00 in0.0 mm 0.00 in0.0 mm 0.00 in0.0 mm
12:53 AM 44.7°F7.1°C 34.8°F1.6°C 68% 5.0 mph SE8.0 kmh SE 7.0 mph11.3 kmh 30.58 in1035.6 mb 0.00 in0.0 mm 0.00 in0.0 mm 0.00 in0.0 mm
12:52 AM 44.7°F7.1°C 34.8°F1.6°C 68% 5.0 mph SE8.0 kmh SE 5.0 mph8.0 kmh 30.58 in1035.6 mb 0.00 in0.0 mm 0.00 in0.0 mm 0.00 in0.0 mm
12:51 AM 44.7°F7.1°C 34.8°F1.6°C 68% 5.0 mph SE8.0 kmh SE 7.0 mph11.3 kmh 30.58 in1035.6 mb 0.00 in0.0 mm 0.00 in0.0 mm 0.00 in0.0 mm
12:50 AM 44.8°F7.1°C 34.9°F1.6°C 68% 5.0 mph SE8.0 kmh SE 6.0 mph9.7 kmh 30.58 in1035.6 mb 0.00 in0.0 mm 0.00 in0.0 mm 0.00 in0.0 mm
12:49 AM 44.8°F7.1°C 34.9°F1.6°C 68% 5.0 mph SE8.0 kmh SE 7.0 mph11.3 kmh 30.58 in1035.6 mb 0.00 in0.0 mm 0.00 in0.0 mm 0.00 in0.0 mm
12:48 AM 44.9°F7.2°C 35.0°F1.7°C 68% 5.0 mph SE8.0 kmh SE 7.0 mph11.3 kmh 30.58 in1035.6 mb 0.00 in0.0 mm 0.00 in0.0 mm 0.00 in0.0 mm
12:47 AM 44.9°F7.2°C 35.0°F1.7°C 68% 5.0 mph SE8.0 kmh SE 7.0 mph11.3 kmh 30.58 in1035.6 mb 0.00 in0.0 mm 0.00 in0.0 mm 0.00 in0.0 mm
12:46 AM 44.8°F7.1°C 34.9°F1.6°C 68% 6.0 mph SE9.7 kmh SE 7.0 mph11.3 kmh 30.58 in1035.6 mb 0.00 in0.0 mm 0.00 in0.0 mm 0.00 in0.0 mm
12:45 AM 44.8°F7.1°C 34.5°F1.4°C 67% 5.0 mph SE8.0 kmh SE 7.0 mph11.3 kmh 30.58 in1035.6 mb 0.00 in0.0 mm 0.00 in0.0 mm 0.00 in0.0 mm
12:44 AM 44.9°F7.2°C 34.6°F1.4°C 67% 5.0 mph SE8.0 kmh SE 7.0 mph11.3 kmh 30.58 in1035.6 mb 0.00 in0.0 mm 0.00 in0.0 mm 0.00 in0.0 mm
12:43 AM 44.9°F7.2°C 34.6°F1.4°C 67% 4.0 mph SE6.4 kmh SE 7.0 mph11.3 kmh 30.58 in1035.6 mb 0.00 in0.0 mm 0.00 in0.0 mm 0.00 in0.0 mm
12:42 AM 45.0°F7.2°C 34.7°F1.5°C 67% 5.0 mph SE8.0 kmh SE 5.0 mph8.0 kmh 30.58 in1035.6 mb 0.00 in0.0 mm 0.00 in0.0 mm 0.00 in0.0 mm
12:41 AM 45.1°F7.3°C 34.8°F1.6°C 67% 4.0 mph SE6.4 kmh SE 5.0 mph8.0 kmh 30.58 in1035.6 mb 0.00 in0.0 mm 0.00 in0.0 mm 0.00 in0.0 mm
12:40 AM 45.1°F7.3°C 34.8°F1.6°C 67% 4.0 mph SE6.4 kmh SE 5.0 mph8.0 kmh 30.58 in1035.6 mb 0.00 in0.0 mm 0.00 in0.0 mm 0.00 in0.0 mm
12:39 AM 45.2°F7.3°C 34.9°F1.6°C 67% 5.0 mph SE8.0 kmh SE 5.0 mph8.0 kmh 30.58 in1035.6 mb 0.00 in0.0 mm 0.00 in0.0 mm 0.00 in0.0 mm
12:38 AM 45.2°F7.3°C 34.9°F1.6°C 67% 4.0 mph SE6.4 kmh SE 4.0 mph6.4 kmh 30.58 in1035.6 mb 0.00 in0.0 mm 0.00 in0.0 mm 0.00 in0.0 mm
12:37 AM 45.2°F7.3°C 34.9°F1.6°C 67% 4.0 mph SE6.4 kmh SE 5.0 mph8.0 kmh 30.58 in1035.6 mb 0.00 in0.0 mm 0.00 in0.0 mm 0.00 in0.0 mm
12:36 AM 45.3°F7.4°C 35.0°F1.7°C 67% 4.0 mph SE6.4 kmh SE 5.0 mph8.0 kmh 30.58 in1035.6 mb 0.00 in0.0 mm 0.00 in0.0 mm 0.00 in0.0 mm
12:35 AM 45.4°F7.4°C 34.7°F1.5°C 66% 4.0 mph SE6.4 kmh SE 5.0 mph8.0 kmh 30.58 in1035.6 mb 0.00 in0.0 mm 0.00 in0.0 mm 0.00 in0.0 mm
12:34 AM 45.5°F7.5°C 34.8°F1.6°C 66% 4.0 mph SE6.4 kmh SE 5.0 mph8.0 kmh 30.58 in1035.6 mb 0.00 in0.0 mm 0.00 in0.0 mm 0.00 in0.0 mm
12:33 AM 45.5°F7.5°C 34.8°F1.6°C 66% 4.0 mph SE6.4 kmh SE 5.0 mph8.0 kmh 30.58 in1035.6 mb 0.00 in0.0 mm 0.00 in0.0 mm 0.00 in0.0 mm
12:32 AM 45.6°F7.6°C 34.9°F1.6°C 66% 4.0 mph SE6.4 kmh SE 4.0 mph6.4 kmh 30.58 in1035.6 mb 0.00 in0.0 mm 0.00 in0.0 mm 0.00 in0.0 mm
12:31 AM 45.7°F7.6°C 35.0°F1.7°C 66% 4.0 mph SE6.4 kmh SE 5.0 mph8.0 kmh 30.58 in1035.6 mb 0.00 in0.0 mm 0.00 in0.0 mm 0.00 in0.0 mm
12:30 AM 45.7°F7.6°C 35.0°F1.7°C 66% 4.0 mph SE6.4 kmh SE 5.0 mph8.0 kmh 30.58 in1035.6 mb 0.00 in0.0 mm 0.00 in0.0 mm 0.00 in0.0 mm
12:29 AM 45.8°F7.7°C 35.1°F1.7°C 66% 4.0 mph SE6.4 kmh SE 4.0 mph6.4 kmh 30.58 in1035.6 mb 0.00 in0.0 mm 0.00 in0.0 mm 0.00 in0.0 mm
12:28 AM 45.8°F7.7°C 35.1°F1.7°C 66% 4.0 mph SE6.4 kmh SE 5.0 mph8.0 kmh 30.58 in1035.6 mb 0.00 in0.0 mm 0.00 in0.0 mm 0.00 in0.0 mm
12:27 AM 45.8°F7.7°C 35.1°F1.7°C 66% 4.0 mph ESE6.4 kmh ESE 5.0 mph8.0 kmh 30.58 in1035.6 mb 0.00 in0.0 mm 0.00 in0.0 mm 0.00 in0.0 mm
12:26 AM 45.9°F7.7°C 35.2°F1.8°C 66% 4.0 mph ESE6.4 kmh ESE 5.0 mph8.0 kmh 30.58 in1035.6 mb 0.00 in0.0 mm 0.00 in0.0 mm 0.00 in0.0 mm
12:25 AM 45.9°F7.7°C 35.2°F1.8°C 66% 3.0 mph ESE4.8 kmh ESE 4.0 mph6.4 kmh 30.58 in1035.6 mb 0.00 in0.0 mm 0.00 in0.0 mm 0.00 in0.0 mm
12:24 AM 45.9°F7.7°C 35.2°F1.8°C 66% 3.0 mph ESE4.8 kmh ESE 6.0 mph9.7 kmh 30.58 in1035.6 mb 0.00 in0.0 mm 0.00 in0.0 mm 0.00 in0.0 mm
12:23 AM 45.8°F7.7°C 35.1°F1.7°C 66% 4.0 mph SE6.4 kmh SE 5.0 mph8.0 kmh 30.58 in1035.6 mb 0.00 in0.0 mm 0.00 in0.0 mm 0.00 in0.0 mm
12:22 AM 45.8°F7.7°C 35.1°F1.7°C 66% 4.0 mph ESE6.4 kmh ESE 5.0 mph8.0 kmh 30.58 in1035.6 mb 0.00 in0.0 mm 0.00 in0.0 mm 0.00 in0.0 mm
12:21 AM 45.7°F7.6°C 35.0°F1.7°C 66% 3.0 mph ESE4.8 kmh ESE 5.0 mph8.0 kmh 30.58 in1035.6 mb 0.00 in0.0 mm 0.00 in0.0 mm 0.00 in0.0 mm
12:20 AM 45.6°F7.6°C 34.9°F1.6°C 66% 4.0 mph ESE6.4 kmh ESE 6.0 mph9.7 kmh 30.58 in1035.6 mb 0.00 in0.0 mm 0.00 in0.0 mm 0.00 in0.0 mm
12:19 AM 45.5°F7.5°C 34.8°F1.6°C 66% 4.0 mph ESE6.4 kmh ESE 6.0 mph9.7 kmh 30.58 in1035.6 mb 0.00 in0.0 mm 0.00 in0.0 mm 0.00 in0.0 mm
12:18 AM 45.5°F7.5°C 34.8°F1.6°C 66% 4.0 mph ESE6.4 kmh ESE 6.0 mph9.7 kmh 30.58 in1035.6 mb 0.00 in0.0 mm 0.00 in0.0 mm 0.00 in0.0 mm
12:17 AM 45.3°F7.4°C 34.6°F1.4°C 66% 4.0 mph ESE6.4 kmh ESE 5.0 mph8.0 kmh 30.58 in1035.6 mb 0.00 in0.0 mm 0.00 in0.0 mm 0.00 in0.0 mm
12:16 AM 45.2°F7.3°C 34.5°F1.4°C 66% 3.0 mph ESE4.8 kmh ESE 4.0 mph6.4 kmh 30.58 in1035.6 mb 0.00 in0.0 mm 0.00 in0.0 mm 0.00 in0.0 mm
12:15 AM 45.1°F7.3°C 34.4°F1.3°C 66% 4.0 mph ESE6.4 kmh ESE 4.0 mph6.4 kmh 30.58 in1035.6 mb 0.00 in0.0 mm 0.00 in0.0 mm 0.00 in0.0 mm
12:14 AM 45.0°F7.2°C 34.3°F1.3°C 66% 3.0 mph E4.8 kmh E 5.0 mph8.0 kmh 30.58 in1035.6 mb 0.00 in0.0 mm 0.00 in0.0 mm 0.00 in0.0 mm
12:13 AM 44.9°F7.2°C 34.2°F1.2°C 66% 2.0 mph E3.2 kmh E 3.0 mph4.8 kmh 30.58 in1035.6 mb 0.00 in0.0 mm 0.00 in0.0 mm 0.00 in0.0 mm
12:12 AM 44.9°F7.2°C 34.2°F1.2°C 66% 2.0 mph E3.2 kmh E 3.0 mph4.8 kmh 30.58 in1035.6 mb 0.00 in0.0 mm 0.00 in0.0 mm 0.00 in0.0 mm
12:11 AM 44.8°F7.1°C 34.1°F1.2°C 66% 3.0 mph E4.8 kmh E 4.0 mph6.4 kmh 30.58 in1035.6 mb 0.00 in0.0 mm 0.00 in0.0 mm 0.00 in0.0 mm
12:10 AM 44.8°F7.1°C 34.1°F1.2°C 66% 2.0 mph E3.2 kmh E 3.0 mph4.8 kmh 30.58 in1035.6 mb 0.00 in0.0 mm 0.00 in0.0 mm 0.00 in0.0 mm
12:09 AM 44.7°F7.1°C 34.4°F1.3°C 67% 2.0 mph E3.2 kmh E 4.0 mph6.4 kmh 30.58 in1035.6 mb 0.00 in0.0 mm 0.00 in0.0 mm 0.00 in0.0 mm
12:08 AM 44.6°F7.0°C 34.3°F1.3°C 67% 2.0 mph ESE3.2 kmh ESE 6.0 mph9.7 kmh 30.58 in1035.6 mb 0.00 in0.0 mm 0.00 in0.0 mm 0.00 in0.0 mm
12:07 AM 44.6°F7.0°C 34.3°F1.3°C 67% 3.0 mph ESE4.8 kmh ESE 6.0 mph9.7 kmh 30.58 in1035.6 mb 0.00 in0.0 mm 0.00 in0.0 mm 0.00 in0.0 mm
12:06 AM 44.5°F6.9°C 34.2°F1.2°C 67% 3.0 mph ESE4.8 kmh ESE 4.0 mph6.4 kmh 30.58 in1035.6 mb 0.00 in0.0 mm 0.00 in0.0 mm 0.00 in0.0 mm
12:05 AM 44.5°F6.9°C 34.2°F1.2°C 67% 2.0 mph E3.2 kmh E 3.0 mph4.8 kmh 30.58 in1035.6 mb 0.00 in0.0 mm 0.00 in0.0 mm 0.00 in0.0 mm
12:04 AM 44.5°F6.9°C 34.2°F1.2°C 67% 3.0 mph ESE4.8 kmh ESE 4.0 mph6.4 kmh 30.58 in1035.6 mb 0.00 in0.0 mm 0.00 in0.0 mm 0.00 in0.0 mm
12:03 AM 44.5°F6.9°C 34.2°F1.2°C 67% 2.0 mph ESE3.2 kmh ESE 3.0 mph4.8 kmh 30.58 in1035.6 mb 0.00 in0.0 mm 0.00 in0.0 mm 0.00 in0.0 mm
12:02 AM 44.4°F6.9°C 34.1°F1.2°C 67% 2.0 mph ESE3.2 kmh ESE 3.0 mph4.8 kmh 30.58 in1035.6 mb 0.00 in0.0 mm 0.00 in0.0 mm 0.00 in0.0 mm
12:01 AM 44.4°F6.9°C 34.1°F1.2°C 67% 1.0 mph ESE1.6 kmh ESE 2.0 mph3.2 kmh 30.58 in1035.6 mb 0.00 in0.0 mm 0.00 in0.0 mm 0.00 in0.0 mm
12:00 AM 44.4°F6.9°C 34.1°F1.2°C 67% 1.0 mph ESE1.6 kmh ESE 2.0 mph3.2 kmh 30.58 in1035.6 mb 0.00 in0.0 mm 0.00 in0.0 mm 0.00 in0.0 mm